createdAt,value
2022-11-26T00:00:44.997Z,5.50
2022-11-26T00:03:13.730Z,5.40
2022-11-26T00:05:48.750Z,5.40
2022-11-26T00:08:25.607Z,5.50
2022-11-26T00:10:54.081Z,5.40
2022-11-26T00:13:28.949Z,5.40
2022-11-26T00:16:00.436Z,5.50
2022-11-26T00:18:30.216Z,5.50
2022-11-26T00:21:00.599Z,5.50
2022-11-26T00:23:30.416Z,5.50
2022-11-26T00:26:03.026Z,5.70
2022-11-26T00:28:36.135Z,5.40
2022-11-26T00:31:05.065Z,5.50
2022-11-26T00:33:35.092Z,5.60
2022-11-26T00:36:07.173Z,5.40
2022-11-26T00:38:34.769Z,5.40
2022-11-26T00:41:04.418Z,5.30
2022-11-26T00:43:31.582Z,5.30
2022-11-26T00:45:59.142Z,5.40
2022-11-26T00:48:28.176Z,5.30
2022-11-26T00:50:57.887Z,5.30
2022-11-26T00:53:27.833Z,5.30
2022-11-26T00:55:56.048Z,5.40
2022-11-26T00:58:29.420Z,5.40
2022-11-26T01:00:58.790Z,5.40
2022-11-26T01:03:26.575Z,5.40
2022-11-26T01:05:58.614Z,5.30
2022-11-26T01:08:34.928Z,5.30
2022-11-26T01:11:04.952Z,5.40
2022-11-26T01:13:33.654Z,5.30
2022-11-26T01:16:06.348Z,5.30
2022-11-26T01:18:37.282Z,5.30
2022-11-26T01:21:04.833Z,5.30
2022-11-26T01:23:31.991Z,5.30
2022-11-26T01:26:09.521Z,5.30
2022-11-26T01:28:37.012Z,5.30
2022-11-26T01:31:28.969Z,5.60
2022-11-26T01:33:59.645Z,5.40
2022-11-26T01:36:38.578Z,5.50
2022-11-26T01:39:13.632Z,5.50
2022-11-26T01:41:52.117Z,5.50
2022-11-26T01:44:25.926Z,5.40
2022-11-26T01:46:53.903Z,5.50
2022-11-26T01:49:28.221Z,5.50
2022-11-26T01:52:11.652Z,5.50
2022-11-26T01:54:43.419Z,5.40
2022-11-26T01:57:18.680Z,5.40
2022-11-26T01:59:51.351Z,5.40
2022-11-26T02:02:22.144Z,5.30
2022-11-26T02:05:11.402Z,5.30
2022-11-26T02:07:39.485Z,5.30
2022-11-26T02:10:07.748Z,5.30
2022-11-26T02:12:35.417Z,5.20
2022-11-26T02:15:03.102Z,5.20
2022-11-26T02:17:34.476Z,5.20
2022-11-26T02:20:36.118Z,5.20
2022-11-26T02:23:41.149Z,5.20
2022-11-26T02:26:31.503Z,5.30
2022-11-26T02:29:20.220Z,5.30
2022-11-26T02:31:58.701Z,5.30
2022-11-26T02:34:46.655Z,5.30
2022-11-26T02:37:20.247Z,5.40
2022-11-26T02:39:47.383Z,5.40
2022-11-26T02:42:33.591Z,5.40
2022-11-26T02:45:39.028Z,5.40
2022-11-26T02:48:10.182Z,5.40
2022-11-26T02:50:42.316Z,5.60
2022-11-26T02:53:12.565Z,5.50
2022-11-26T02:55:44.813Z,5.60
2022-11-26T02:58:12.054Z,5.50
2022-11-26T03:00:42.239Z,5.60
2022-11-26T03:03:26.285Z,5.60
2022-11-26T03:05:57.918Z,5.60
2022-11-26T03:08:26.507Z,5.60
2022-11-26T03:10:53.642Z,5.80
2022-11-26T03:13:20.739Z,5.60
2022-11-26T03:15:47.853Z,5.80
2022-11-26T03:18:14.910Z,5.70
2022-11-26T03:20:42.113Z,5.70
2022-11-26T03:23:09.360Z,5.70
2022-11-26T03:25:36.696Z,5.70
2022-11-26T03:28:04.205Z,5.70
2022-11-26T03:30:31.871Z,5.70
2022-11-26T03:32:58.967Z,5.80
2022-11-26T03:35:26.030Z,5.80
2022-11-26T03:37:53.098Z,5.80
2022-11-26T03:40:20.422Z,5.80
2022-11-26T03:42:47.633Z,5.80
2022-11-26T03:45:14.710Z,5.80
2022-11-26T03:47:41.968Z,5.80
2022-11-26T03:50:09.524Z,5.80
2022-11-26T03:52:36.638Z,5.80
2022-11-26T03:55:04.060Z,5.80
2022-11-26T03:57:31.476Z,5.80
2022-11-26T03:59:58.586Z,5.70
2022-11-26T04:02:25.702Z,6.00
2022-11-26T04:04:52.793Z,5.90
2022-11-26T04:07:20.051Z,5.70
2022-11-26T04:09:47.205Z,5.80
2022-11-26T04:12:14.309Z,5.80
2022-11-26T04:14:41.728Z,5.80
2022-11-26T04:17:09.066Z,5.80
2022-11-26T04:19:36.164Z,5.80
2022-11-26T04:22:03.196Z,5.90
2022-11-26T04:24:30.298Z,5.90
2022-11-26T04:26:57.397Z,5.90
2022-11-26T04:29:24.474Z,5.90
2022-11-26T04:31:51.553Z,5.90
2022-11-26T04:34:18.717Z,5.90
2022-11-26T04:36:45.804Z,5.90
2022-11-26T04:39:12.902Z,5.80
2022-11-26T04:41:39.967Z,5.80
2022-11-26T04:44:07.006Z,5.90
2022-11-26T04:46:34.056Z,5.90
2022-11-26T04:49:01.132Z,5.90
2022-11-26T04:51:28.215Z,5.90
2022-11-26T04:53:55.969Z,6.00
2022-11-26T04:56:24.108Z,6.00
2022-11-26T04:58:51.346Z,6.00
2022-11-26T05:01:18.491Z,6.00
2022-11-26T05:03:45.640Z,6.00
2022-11-26T05:06:12.823Z,6.00
2022-11-26T05:08:39.910Z,6.00
2022-11-26T05:11:07.458Z,5.90
2022-11-26T05:13:34.536Z,6.00
2022-11-26T05:16:01.630Z,6.00
2022-11-26T05:18:29.408Z,5.90
2022-11-26T05:20:56.676Z,5.90
2022-11-26T05:23:23.813Z,5.90
2022-11-26T05:25:51.392Z,5.90
2022-11-26T05:28:18.445Z,5.90
2022-11-26T05:30:45.575Z,5.90
2022-11-26T05:33:12.749Z,5.90
2022-11-26T05:35:39.938Z,6.00
2022-11-26T05:38:07.196Z,6.00
2022-11-26T05:40:34.443Z,6.00
2022-11-26T05:43:01.516Z,6.00
2022-11-26T05:45:28.648Z,6.00
2022-11-26T05:47:55.784Z,6.00
2022-11-26T05:50:22.926Z,6.00
2022-11-26T05:52:53.418Z,6.00
2022-11-26T05:55:20.694Z,6.00
2022-11-26T05:57:47.896Z,6.00
2022-11-26T06:00:15.404Z,6.00
2022-11-26T06:02:42.841Z,6.00
2022-11-26T06:05:10.414Z,6.10
2022-11-26T06:07:43.288Z,6.00
2022-11-26T06:10:12.551Z,6.10
2022-11-26T06:12:39.752Z,6.00
2022-11-26T06:15:07.223Z,6.00
2022-11-26T06:17:34.325Z,6.00
2022-11-26T06:20:01.376Z,6.10
2022-11-26T06:22:28.463Z,5.90
2022-11-26T06:24:56.117Z,5.90
2022-11-26T06:27:23.245Z,5.90
2022-11-26T06:29:50.446Z,5.90
2022-11-26T06:32:20.514Z,5.90
2022-11-26T06:34:51.224Z,5.90
2022-11-26T06:37:21.080Z,5.90
2022-11-26T06:39:48.261Z,5.90
2022-11-26T06:42:15.480Z,5.80
2022-11-26T06:44:42.579Z,5.90
2022-11-26T06:47:13.756Z,5.80
2022-11-26T06:49:40.998Z,5.80
2022-11-26T06:52:08.386Z,5.90
2022-11-26T06:54:35.598Z,5.80
2022-11-26T06:57:02.730Z,6.00
2022-11-26T06:59:29.886Z,5.90
2022-11-26T07:01:57.271Z,5.90
2022-11-26T07:04:24.548Z,5.90
2022-11-26T07:06:51.656Z,5.90
2022-11-26T07:09:18.733Z,5.90
2022-11-26T07:11:45.850Z,5.90
2022-11-26T07:14:12.914Z,5.90
2022-11-26T07:16:41.302Z,5.90
2022-11-26T07:19:13.267Z,5.90
2022-11-26T07:21:41.059Z,5.90
2022-11-26T07:24:08.299Z,5.90
2022-11-26T07:26:35.477Z,5.90
2022-11-26T07:29:02.594Z,5.90
2022-11-26T07:31:29.820Z,6.00
2022-11-26T07:33:57.864Z,5.90
2022-11-26T07:36:29.121Z,5.90
2022-11-26T07:39:01.714Z,5.90
2022-11-26T07:41:29.583Z,5.90
2022-11-26T07:43:57.007Z,5.80
2022-11-26T07:46:25.689Z,5.90
2022-11-26T07:48:54.228Z,5.90
2022-11-26T07:51:24.318Z,5.90
2022-11-26T07:53:52.202Z,5.90
2022-11-26T07:56:20.061Z,6.00
2022-11-26T07:58:47.447Z,6.00
2022-11-26T08:01:18.140Z,6.00
2022-11-26T08:03:47.779Z,6.10
2022-11-26T08:06:17.915Z,6.10
2022-11-26T08:08:45.704Z,6.10
2022-11-26T08:11:19.729Z,6.20
2022-11-26T08:13:47.774Z,6.20
2022-11-26T08:16:16.204Z,6.20
2022-11-26T08:18:43.387Z,6.30
2022-11-26T08:21:10.916Z,6.30
2022-11-26T08:23:39.957Z,6.40
2022-11-26T08:26:33.620Z,6.40
2022-11-26T08:28:58.638Z,6.30
2022-11-26T08:31:27.875Z,6.40
2022-11-26T08:33:59.740Z,6.50
2022-11-26T08:36:28.524Z,6.50
2022-11-26T08:38:55.827Z,6.60
2022-11-26T08:41:23.827Z,6.70
2022-11-26T08:44:06.157Z,6.60
2022-11-26T08:46:39.087Z,6.90
2022-11-26T08:49:07.629Z,6.80
2022-11-26T08:51:35.435Z,6.90
2022-11-26T08:54:02.927Z,6.80
2022-11-26T08:56:30.321Z,6.90
2022-11-26T08:58:57.406Z,7.00
2022-11-26T09:01:27.446Z,7.10
2022-11-26T09:03:57.364Z,7.10
2022-11-26T09:06:26.997Z,7.20
2022-11-26T09:09:12.808Z,7.30
2022-11-26T09:11:49.688Z,7.40
2022-11-26T09:14:20.240Z,7.40
2022-11-26T09:16:48.001Z,7.50
2022-11-26T09:19:15.799Z,7.50
2022-11-26T09:21:43.733Z,7.50
2022-11-26T09:24:11.926Z,7.60
2022-11-26T09:26:39.644Z,7.60
2022-11-26T09:29:06.919Z,7.60
2022-11-26T09:31:34.286Z,7.60
2022-11-26T09:34:02.866Z,7.60
2022-11-26T09:36:30.495Z,7.70
2022-11-26T09:38:58.791Z,7.70
2022-11-26T09:41:57.201Z,7.70
2022-11-26T09:44:33.607Z,7.80
2022-11-26T09:47:17.309Z,7.80
2022-11-26T09:50:19.116Z,7.80
2022-11-26T09:52:52.123Z,7.80
2022-11-26T09:55:27.590Z,7.90
2022-11-26T09:58:26.647Z,7.90
2022-11-26T10:00:57.265Z,7.90
2022-11-26T10:03:33.343Z,8.00
2022-11-26T10:06:06.780Z,8.00
2022-11-26T10:08:54.254Z,8.10
2022-11-26T10:11:33.293Z,8.10
2022-11-26T10:14:32.606Z,8.20
2022-11-26T10:17:41.516Z,8.30
2022-11-26T10:20:28.723Z,8.30
2022-11-26T10:23:21.718Z,8.40
2022-11-26T10:25:58.382Z,8.50
2022-11-26T10:28:28.048Z,8.50
2022-11-26T10:31:01.286Z,8.60
2022-11-26T10:33:36.561Z,8.60
2022-11-26T10:36:11.756Z,8.60
2022-11-26T10:38:38.855Z,8.60
2022-11-26T10:41:06.066Z,8.60
2022-11-26T10:43:33.195Z,8.70
2022-11-26T10:46:00.311Z,8.70
2022-11-26T10:48:30.215Z,8.70
2022-11-26T10:51:25.092Z,8.80
2022-11-26T10:53:59.932Z,8.80
2022-11-26T10:56:32.481Z,8.80
2022-11-26T10:59:03.946Z,8.80
2022-11-26T11:01:38.842Z,8.90
2022-11-26T11:04:39.233Z,8.90
2022-11-26T11:07:11.824Z,8.90
2022-11-26T11:09:39.159Z,8.90
2022-11-26T11:12:22.471Z,8.90
2022-11-26T11:14:51.587Z,9.00
2022-11-26T11:17:40.958Z,9.10
2022-11-26T11:20:17.156Z,9.10
2022-11-26T11:22:45.294Z,9.20
2022-11-26T11:25:23.667Z,9.20
2022-11-26T11:27:51.289Z,9.30
2022-11-26T11:30:45.997Z,9.30
2022-11-26T11:33:22.648Z,9.30
2022-11-26T11:36:05.069Z,9.30
2022-11-26T11:38:48.317Z,9.30
2022-11-26T11:41:24.388Z,9.40
2022-11-26T11:43:58.246Z,9.40
2022-11-26T11:46:59.195Z,9.40
2022-11-26T11:49:41.703Z,9.40
2022-11-26T11:52:32.915Z,9.40
2022-11-26T11:55:03.046Z,9.40
2022-11-26T11:58:09.290Z,9.40
2022-11-26T12:00:57.011Z,9.40
2022-11-26T12:03:32.938Z,9.50
2022-11-26T12:06:21.844Z,9.70
2022-11-26T12:09:10.061Z,9.70
2022-11-26T12:11:49.273Z,9.80
2022-11-26T12:14:32.778Z,9.90
2022-11-26T12:17:35.965Z,9.90
2022-11-26T12:20:25.752Z,9.90
2022-11-26T12:23:00.137Z,9.90
2022-11-26T12:25:36.861Z,9.80
2022-11-26T12:28:13.258Z,9.80
2022-11-26T12:30:46.194Z,9.70
2022-11-26T12:33:42.962Z,9.80
2022-11-26T12:36:38.511Z,9.70
2022-11-26T12:39:42.914Z,9.70
2022-11-26T12:42:28.409Z,9.70
2022-11-26T12:45:02.907Z,9.70
2022-11-26T12:47:44.244Z,9.70
2022-11-26T12:50:20.981Z,9.70
2022-11-26T12:52:51.496Z,9.70
2022-11-26T12:55:18.915Z,9.70
2022-11-26T12:58:18.050Z,9.70
2022-11-26T13:00:47.094Z,9.70
2022-11-26T13:03:17.809Z,9.70
2022-11-26T13:05:51.446Z,9.70
2022-11-26T13:08:31.688Z,9.70
2022-11-26T13:11:17.251Z,9.70
2022-11-26T13:14:13.524Z,9.70
2022-11-26T13:17:05.127Z,9.60
2022-11-26T13:19:43.936Z,9.60
2022-11-26T13:22:39.551Z,9.50
2022-11-26T13:25:33.862Z,9.40
2022-11-26T13:28:14.447Z,9.40
2022-11-26T13:31:06.645Z,9.40
2022-11-26T13:33:52.159Z,9.30
2022-11-26T13:36:28.665Z,9.30
2022-11-26T13:39:04.823Z,9.30
2022-11-26T13:42:02.339Z,9.30
2022-11-26T13:44:57.583Z,9.30
2022-11-26T13:47:39.921Z,9.30
2022-11-26T13:50:18.560Z,9.20
2022-11-26T13:53:26.993Z,9.30
2022-11-26T13:56:07.523Z,9.30
2022-11-26T13:58:55.980Z,9.30
2022-11-26T14:01:26.289Z,9.30
2022-11-26T14:03:53.764Z,9.30
2022-11-26T14:06:22.025Z,9.30
2022-11-26T14:08:52.132Z,9.30
2022-11-26T14:11:41.261Z,9.30
2022-11-26T14:14:26.663Z,9.30
2022-11-26T14:17:03.148Z,9.30
2022-11-26T14:19:42.645Z,9.30
2022-11-26T14:22:21.919Z,9.30
2022-11-26T14:24:49.448Z,9.30
2022-11-26T14:27:18.105Z,9.30
2022-11-26T14:29:47.377Z,9.30
2022-11-26T14:32:20.118Z,9.30
2022-11-26T14:34:55.658Z,9.20
2022-11-26T14:37:27.053Z,9.20
2022-11-26T14:40:04.713Z,9.10
2022-11-26T14:42:31.847Z,9.10
2022-11-26T14:45:25.534Z,9.10
2022-11-26T14:47:53.254Z,9.10
2022-11-26T14:50:23.569Z,9.10
2022-11-26T14:53:00.931Z,9.00
2022-11-26T14:55:30.788Z,9.10
2022-11-26T14:58:08.680Z,9.00
2022-11-26T15:00:36.862Z,8.90
2022-11-26T15:03:04.416Z,8.90
2022-11-26T15:05:40.674Z,8.90
2022-11-26T15:08:24.062Z,8.90
2022-11-26T15:11:11.853Z,8.80
2022-11-26T15:13:46.141Z,8.80
2022-11-26T15:16:33.804Z,8.80
2022-11-26T15:19:02.971Z,8.70
2022-11-26T15:21:30.595Z,8.70
2022-11-26T15:24:01.427Z,8.70
2022-11-26T15:26:34.307Z,8.60
2022-11-26T15:29:01.344Z,8.50
2022-11-26T15:31:41.740Z,8.50
2022-11-26T15:34:15.774Z,8.40
2022-11-26T15:36:42.899Z,8.50
2022-11-26T15:39:25.626Z,8.40
2022-11-26T15:41:54.363Z,8.40
2022-11-26T15:44:25.090Z,8.40
2022-11-26T15:46:55.592Z,8.30
2022-11-26T15:49:36.064Z,8.30
2022-11-26T15:52:08.414Z,8.30
2022-11-26T15:55:10.916Z,8.30
2022-11-26T15:57:35.145Z,8.20
2022-11-26T16:00:18.244Z,8.20
2022-11-26T16:02:45.568Z,8.20
2022-11-26T16:05:24.907Z,8.20
2022-11-26T16:08:04.148Z,8.20
2022-11-26T16:10:36.883Z,8.20
2022-11-26T16:13:16.121Z,8.20
2022-11-26T16:15:56.710Z,8.20
2022-11-26T16:18:30.536Z,8.20
2022-11-26T16:21:27.627Z,8.20
2022-11-26T16:23:58.082Z,8.10
2022-11-26T16:26:25.443Z,8.20
2022-11-26T16:28:53.248Z,8.20
2022-11-26T16:31:21.195Z,8.20
2022-11-26T16:33:48.313Z,8.20
2022-11-26T16:36:17.605Z,8.20
2022-11-26T16:38:45.453Z,8.20
2022-11-26T16:41:14.131Z,8.20
2022-11-26T16:43:41.517Z,8.20
2022-11-26T16:46:28.034Z,8.20
2022-11-26T16:48:55.343Z,8.20
2022-11-26T16:51:22.921Z,8.20
2022-11-26T16:53:50.607Z,8.30
2022-11-26T16:56:25.574Z,8.30
2022-11-26T16:58:53.045Z,8.30
2022-11-26T17:01:20.407Z,8.20
2022-11-26T17:03:47.613Z,8.30
2022-11-26T17:06:31.315Z,8.30
2022-11-26T17:08:58.644Z,8.30
2022-11-26T17:11:25.866Z,8.30
2022-11-26T17:13:53.341Z,8.20
2022-11-26T17:16:23.057Z,8.00
2022-11-26T17:18:50.696Z,8.10
2022-11-26T17:21:18.121Z,8.00
2022-11-26T17:23:45.219Z,8.00
2022-11-26T17:26:23.405Z,7.90
2022-11-26T17:28:51.157Z,7.90
2022-11-26T17:31:18.394Z,7.80
2022-11-26T17:33:45.587Z,7.80
2022-11-26T17:36:22.308Z,7.80
2022-11-26T17:38:50.342Z,7.80
2022-11-26T17:41:17.914Z,7.80
2022-11-26T17:43:45.133Z,7.80
2022-11-26T17:46:19.769Z,7.80
2022-11-26T17:48:47.722Z,7.90
2022-11-26T17:51:15.694Z,7.80
2022-11-26T17:53:43.594Z,7.80
2022-11-26T17:56:22.489Z,7.80
2022-11-26T17:58:50.398Z,7.80
2022-11-26T18:01:17.863Z,8.00
2022-11-26T18:03:45.858Z,7.80
2022-11-26T18:06:41.287Z,7.80
2022-11-26T18:09:08.525Z,7.80
2022-11-26T18:11:50.804Z,7.80
2022-11-26T18:14:18.235Z,7.90
2022-11-26T18:16:45.822Z,7.80
2022-11-26T18:19:14.726Z,7.90
2022-11-26T18:21:41.835Z,7.90
2022-11-26T18:24:09.910Z,7.90
2022-11-26T18:26:37.598Z,8.00
2022-11-26T18:29:04.832Z,8.00
2022-11-26T18:31:38.105Z,8.00
2022-11-26T18:34:07.415Z,8.10
2022-11-26T18:36:34.606Z,8.00
2022-11-26T18:39:04.301Z,8.10
2022-11-26T18:41:32.156Z,8.00
2022-11-26T18:44:00.482Z,8.00
2022-11-26T18:46:27.849Z,8.00
2022-11-26T18:48:57.138Z,8.00
2022-11-26T18:51:24.836Z,7.90
2022-11-26T18:53:51.950Z,8.00
2022-11-26T18:56:22.826Z,8.00
2022-11-26T18:58:51.087Z,8.00
2022-11-26T19:01:22.638Z,8.00
2022-11-26T19:03:50.465Z,7.90
2022-11-26T19:06:20.632Z,7.90
2022-11-26T19:08:49.015Z,7.90
2022-11-26T19:11:20.754Z,7.90
2022-11-26T19:13:48.421Z,7.80
2022-11-26T19:16:18.020Z,7.90
2022-11-26T19:18:46.570Z,7.80
2022-11-26T19:21:33.512Z,7.80
2022-11-26T19:24:03.384Z,7.80
2022-11-26T19:26:30.616Z,7.80
2022-11-26T19:29:02.153Z,7.70
2022-11-26T19:31:30.573Z,7.70
2022-11-26T19:34:00.980Z,7.70
2022-11-26T19:36:29.843Z,7.60
2022-11-26T19:38:58.259Z,7.60
2022-11-26T19:41:26.516Z,7.60
2022-11-26T19:43:54.556Z,7.60
2022-11-26T19:46:23.763Z,7.60
2022-11-26T19:48:52.620Z,7.70
2022-11-26T19:51:21.825Z,7.60
2022-11-26T19:53:50.907Z,7.60
2022-11-26T19:56:21.231Z,7.60
2022-11-26T19:58:48.524Z,7.60
2022-11-26T20:01:17.365Z,7.70
2022-11-26T20:06:37.609Z,7.70
2022-11-26T20:09:06.896Z,7.70
2022-11-26T20:11:37.370Z,7.80
2022-11-26T20:16:49.283Z,7.80
2022-11-26T20:18:02.118Z,7.80
2022-11-26T20:20:29.284Z,7.80
2022-11-26T20:22:56.381Z,7.80
2022-11-26T20:25:24.785Z,7.80
2022-11-26T20:28:32.625Z,7.80
2022-11-26T20:31:51.482Z,7.80
2022-11-26T20:35:00.091Z,7.90
2022-11-26T20:37:28.967Z,7.90
2022-11-26T20:39:58.157Z,7.90
2022-11-26T20:42:44.459Z,7.90
2022-11-26T20:45:53.219Z,7.90
2022-11-26T20:48:16.074Z,8.00
2022-11-26T20:50:43.267Z,7.90
2022-11-26T20:53:10.543Z,7.80
2022-11-26T20:55:37.713Z,8.00
2022-11-26T20:58:04.888Z,7.90
2022-11-26T21:00:32.069Z,8.00
2022-11-26T21:03:00.889Z,7.90
2022-11-26T21:05:28.020Z,7.90
2022-11-26T21:07:55.236Z,7.90
2022-11-26T21:10:25.283Z,8.00
2022-11-26T21:12:52.537Z,7.80
2022-11-26T21:15:20.022Z,7.80
2022-11-26T21:17:49.955Z,7.80
2022-11-26T21:20:17.323Z,7.80
2022-11-26T21:22:47.130Z,7.80
2022-11-26T21:25:14.839Z,7.80
2022-11-26T21:27:42.069Z,7.70
2022-11-26T21:30:10.235Z,7.70
2022-11-26T21:32:37.319Z,7.70
2022-11-26T21:35:04.652Z,7.70
2022-11-26T21:37:31.831Z,7.60
2022-11-26T21:39:58.971Z,7.60
2022-11-26T21:42:26.085Z,7.60
2022-11-26T21:44:53.253Z,7.70
2022-11-26T21:47:20.357Z,7.60
2022-11-26T21:49:47.543Z,7.50
2022-11-26T21:52:15.181Z,7.50
2022-11-26T21:54:42.226Z,7.40
2022-11-26T21:57:09.420Z,7.40
2022-11-26T21:59:36.630Z,7.40
2022-11-26T22:02:06.288Z,7.20
2022-11-26T22:04:33.657Z,7.20
2022-11-26T22:07:01.050Z,7.10
2022-11-26T22:09:28.471Z,7.10
2022-11-26T22:11:55.625Z,7.10
2022-11-26T22:14:22.960Z,7.00
2022-11-26T22:16:53.627Z,7.00
2022-11-26T22:19:20.973Z,7.00
2022-11-26T22:21:48.520Z,7.00
2022-11-26T22:24:17.923Z,6.90
2022-11-26T22:26:45.498Z,6.90
2022-11-26T22:29:14.853Z,6.90
2022-11-26T22:31:42.667Z,6.90
2022-11-26T22:34:15.538Z,6.80
2022-11-26T22:36:44.102Z,6.90
2022-11-26T22:39:14.638Z,7.00
2022-11-26T22:41:42.938Z,6.90
2022-11-26T22:44:10.764Z,6.80
2022-11-26T22:46:41.017Z,6.80
2022-11-26T22:49:11.412Z,6.80
2022-11-26T22:51:38.718Z,6.80
2022-11-26T22:54:07.584Z,6.80
2022-11-26T22:56:37.690Z,6.80
2022-11-26T22:59:06.530Z,6.70
2022-11-26T23:01:35.379Z,6.90
2022-11-26T23:04:05.776Z,6.70
2022-11-26T23:06:34.206Z,6.70
2022-11-26T23:09:03.561Z,6.70
2022-11-26T23:11:38.890Z,6.70
2022-11-26T23:14:07.682Z,6.70
2022-11-26T23:16:38.461Z,6.70
2022-11-26T23:19:06.362Z,6.70
2022-11-26T23:21:37.119Z,6.60
2022-11-26T23:24:05.890Z,6.70
2022-11-26T23:26:36.012Z,6.60
2022-11-26T23:29:05.452Z,6.60
2022-11-26T23:31:35.790Z,6.60
2022-11-26T23:34:04.382Z,6.60
2022-11-26T23:36:32.666Z,6.50
2022-11-26T23:39:01.584Z,6.50
2022-11-26T23:41:29.482Z,6.50
2022-11-26T23:43:56.799Z,6.50
2022-11-26T23:46:26.686Z,6.40
2022-11-26T23:48:56.941Z,6.50
2022-11-26T23:51:30.230Z,6.40
2022-11-26T23:53:57.551Z,6.40
2022-11-26T23:56:31.281Z,6.40
2022-11-26T23:59:02.251Z,6.40
